Time;durP1;ratioP1;P1;durP2;ratioP2;P2;SDS_P1;SDS_P2;PMS_P1;PMS_P2;Temp;Humidity;BMP_temperature;BMP_pressure;BME280_temperature;BME280_humidity;BME280_pressure;Samples;Min_cycle;Max_cycle;Signal;HPM_P1;HPM_P2
2022/12/20 00:01:30;;;;;;;5.25;2.78;;;;;;;;;;5047438;28;20056;-62
2022/12/20 00:03:57;;;;;;;10.93;3.88;;;;;;;;;;5009654;28;20053;-62
2022/12/20 00:06:23;;;;;;;6.15;3.22;;;;;;;;;;5018299;28;20393;-62
2022/12/20 00:08:57;;;;;;;8.52;3.38;;;;;;;;;;5052134;28;20099;-62
2022/12/20 00:14:39;;;;;;;7.05;3.05;;;;;;;;;;4985128;22;20107;-62
2022/12/20 00:17:05;;;;;;;8.32;3.17;;;;;;;;;;5032467;28;20049;-62
2022/12/20 00:19:31;;;;;;;6.43;3.45;;;;;;;;;;5050783;28;20136;-62
2022/12/20 00:21:57;;;;;;;4.53;2.45;;;;;;;;;;5051698;28;20472;-63
2022/12/20 00:24:24;;;;;;;5.15;3.15;;;;;;;;;;5051404;28;20048;-62
2022/12/20 00:26:50;;;;;;;6.50;2.80;;;;;;;;;;5050506;28;20048;-64
2022/12/20 00:29:16;;;;;;;10.13;3.35;;;;;;;;;;5039964;23;20050;-62
2022/12/20 00:31:42;;;;;;;6.28;3.15;;;;;;;;;;5053196;22;20060;-62
2022/12/20 00:34:08;;;;;;;9.25;3.92;;;;;;;;;;5071907;28;20523;-63
2022/12/20 00:36:34;;;;;;;7.18;3.38;;;;;;;;;;5071849;28;20041;-62
2022/12/20 00:39:01;;;;;;;6.97;2.90;;;;;;;;;;5055382;28;20048;-62
2022/12/20 00:41:28;;;;;;;4.40;2.50;;;;;;;;;;5072921;28;20048;-62
2022/12/20 00:43:55;;;;;;;6.35;3.00;;;;;;;;;;5091121;28;20044;-62
2022/12/20 00:46:22;;;;;;;6.85;3.33;;;;;;;;;;5069391;28;20129;-62
2022/12/20 00:48:48;;;;;;;4.20;2.85;;;;;;;;;;5055974;28;20047;-62
2022/12/20 00:51:16;;;;;;;6.22;3.38;;;;;;;;;;5073392;28;20131;-62
2022/12/20 00:53:42;;;;;;;8.88;3.00;;;;;;;;;;5091369;28;20044;-61
2022/12/20 00:56:09;;;;;;;5.25;3.13;;;;;;;;;;5091496;28;20100;-61
2022/12/20 00:58:37;;;;;;;6.65;3.30;;;;;;;;;;5072737;28;20404;-62
2022/12/20 01:01:04;;;;;;;7.30;3.03;;;;;;;;;;5091743;28;20040;-62
2022/12/20 01:03:30;;;;;;;5.10;2.78;;;;;;;;;;5091799;28;20036;-62
2022/12/20 01:06:00;;;;;;;8.18;3.00;;;;;;;;;;5090356;28;20036;-62
2022/12/20 01:08:27;;;;;;;5.57;2.85;;;;;;;;;;5094500;28;20469;-62
2022/12/20 01:10:59;;;;;;;7.57;3.10;;;;;;;;;;5076965;28;20539;-63
2022/12/20 01:13:26;;;;;;;5.35;3.15;;;;;;;;;;5091971;28;20119;-62
2022/12/20 01:15:52;;;;;;;6.15;3.10;;;;;;;;;;5080411;28;20110;-62
2022/12/20 01:18:19;;;;;;;4.57;2.60;;;;;;;;;;5076729;28;20548;-62
2022/12/20 01:20:45;;;;;;;4.85;3.20;;;;;;;;;;5095795;28;20126;-62
2022/12/20 01:23:11;;;;;;;6.30;2.70;;;;;;;;;;5093949;28;20097;-61
2022/12/20 01:25:37;;;;;;;7.40;2.80;;;;;;;;;;5085566;28;20040;-62
2022/12/20 01:28:03;;;;;;;6.15;3.15;;;;;;;;;;5094672;28;20512;-62
2022/12/20 01:30:29;;;;;;;6.50;3.03;;;;;;;;;;5077634;28;20050;-61
2022/12/20 01:32:55;;;;;;;6.85;3.10;;;;;;;;;;5094905;28;20056;-62
2022/12/20 01:35:21;;;;;;;6.47;2.88;;;;;;;;;;5094977;28;20105;-62
2022/12/20 01:37:47;;;;;;;7.60;3.00;;;;;;;;;;5075751;28;20040;-62
2022/12/20 01:40:13;;;;;;;6.68;2.78;;;;;;;;;;5076421;28;20044;-62
2022/12/20 01:42:39;;;;;;;5.60;2.80;;;;;;;;;;5090716;28;20488;-63
2022/12/20 01:45:07;;;;;;;6.68;2.53;;;;;;;;;;5095048;28;20507;-61
2022/12/20 01:47:34;;;;;;;5.18;2.47;;;;;;;;;;5076144;28;20487;-62
2022/12/20 01:50:03;;;;;;;6.05;2.78;;;;;;;;;;5076951;28;20500;-62
2022/12/20 01:52:35;;;;;;;6.00;2.85;;;;;;;;;;5094415;28;20412;-62
2022/12/20 01:55:10;;;;;;;4.40;2.55;;;;;;;;;;5080150;28;20048;-61
2022/12/20 01:57:42;;;;;;;4.95;2.55;;;;;;;;;;5093894;28;20377;-61
2022/12/20 02:00:08;;;;;;;5.30;2.60;;;;;;;;;;5095089;28;20512;-61
2022/12/20 02:02:35;;;;;;;5.68;2.53;;;;;;;;;;5094924;28;20143;-61
2022/12/20 02:05:01;;;;;;;5.57;2.53;;;;;;;;;;5075243;28;20377;-61
2022/12/20 02:07:29;;;;;;;4.15;2.75;;;;;;;;;;5090135;28;20047;-62
2022/12/20 02:09:56;;;;;;;5.25;2.60;;;;;;;;;;5074550;28;20048;-62
2022/12/20 02:12:23;;;;;;;6.13;3.00;;;;;;;;;;5094127;28;20157;-61
2022/12/20 02:15:05;;;;;;;6.75;2.78;;;;;;;;;;5094285;28;20052;-62
2022/12/20 02:18:08;;;;;;;6.82;3.10;;;10.20;99.90;;;;;;5093611;28;20503;-61
2022/12/20 02:20:37;;;;;;;4.85;2.45;;;;;;;;;;5059186;28;20044;-62
2022/12/20 02:23:03;;;;;;;5.22;2.80;;;;;;;;;;5093002;28;20040;-61
2022/12/20 02:25:35;;;;;;;5.07;2.50;;;;;;;;;;5087759;28;20102;-62
2022/12/20 02:28:13;;;;;;;5.90;3.15;;;;;;;;;;5093611;28;20119;-61
2022/12/20 02:30:41;;;;;;;5.25;2.13;;;;;;;;;;5094290;28;20056;-62
2022/12/20 02:33:09;;;;;;;5.45;3.10;;;;;;;;;;5082172;28;20769;-61
2022/12/20 02:35:37;;;;;;;3.53;2.63;;;;;;;;;;5092391;28;20127;-61
2022/12/20 02:38:05;;;;;;;4.10;2.60;;;;;;;;;;5091668;28;20082;-61
2022/12/20 02:40:36;;;;;;;10.10;4.65;;;;;;;;;;5094019;28;20097;-62
2022/12/20 02:45:14;;;;;;;6.35;3.25;;;;;;;;;;5093940;28;20553;-61
2022/12/20 02:45:50;;;;;;;6.53;3.30;;;;;;;;;;5093679;28;20094;-61
2022/12/20 02:48:17;;;;;;;5.75;3.47;;;;;;;;;;5089092;28;20121;-62
2022/12/20 02:50:50;;;;;;;7.88;3.45;;;;;;;;;;5074529;28;20044;-61
2022/12/20 02:53:16;;;;;;;5.75;3.30;;;;;;;;;;5086724;28;20051;-61
2022/12/20 02:55:46;;;;;;;5.85;3.40;;;;;;;;;;5092563;28;20082;-62
2022/12/20 02:58:17;;;;;;;7.65;2.85;;;;;;;;;;5092930;28;20119;-62
2022/12/20 03:00:45;;;;;;;7.95;3.55;;;;;;;;;;5059451;28;20051;-62
2022/12/20 03:03:23;;;;;;;6.82;3.30;;;;;;;;;;5074682;28;20063;-62
2022/12/20 03:05:51;;;;;;;7.93;3.22;;;;;;;;;;5074101;28;20048;-62
2022/12/20 03:08:17;;;;;;;5.78;3.25;;;;;;;;;;5085247;28;20411;-61
2022/12/20 03:10:43;;;;;;;7.45;3.28;;;;;;;;;;5072924;28;20083;-60
2022/12/20 03:13:09;;;;;;;5.50;3.05;;;;;;;;;;5071136;23;20056;-60
2022/12/20 03:15:35;;;;;;;7.15;3.83;;;;;;;;;;5072952;28;20048;-60
2022/12/20 03:18:01;;;;;;;8.07;3.80;;;;;;;;;;5079477;28;20044;-60
2022/12/20 03:20:28;;;;;;;6.68;3.70;;;;;;;;;;5055680;28;20041;-60
2022/12/20 03:22:54;;;;;;;5.82;3.63;;;;;;;;;;5070019;28;20492;-60
2022/12/20 03:25:20;;;;;;;8.02;3.28;;;;;;;;;;5054107;28;20048;-60
2022/12/20 03:27:46;;;;;;;7.75;4.43;;;;;;;;;;5072690;28;20059;-60
2022/12/20 03:30:12;;;;;;;7.90;3.72;;;;;;;;;;5073062;28;20098;-60
2022/12/20 03:32:38;;;;;;;8.10;3.58;;;;;;;;;;5037648;28;20102;-60
2022/12/20 03:35:04;;;;;;;6.90;4.05;;;;;;;;;;5054709;28;20048;-60
2022/12/20 03:37:30;;;;;;;6.15;3.67;;;;;;;;;;5054874;28;20074;-60
2022/12/20 03:39:56;;;;;;;6.43;3.85;;;;;;;;;;5071435;28;20087;-60
2022/12/20 03:42:26;;;;;;;10.75;4.90;;;;;;;;;;5056255;22;20087;-61
2022/12/20 03:44:52;;;;;;;7.95;3.97;;;;;;;;;;5030341;28;20089;-60
2022/12/20 03:47:18;;;;;;;8.02;3.72;;;;;;;;;;5032098;28;20072;-61
2022/12/20 03:49:44;;;;;;;8.48;4.25;;;;;;;;;;5014243;28;20064;-61
2022/12/20 03:52:14;;;;;;;10.30;4.53;;;;;;;;;;5014423;28;20407;-61
2022/12/20 03:54:40;;;;;;;8.23;4.93;;;;;;;;;;5030860;28;20410;-63
2022/12/20 03:59:34;;;;;;;6.90;3.38;;;;;;;;;;4956264;22;20060;-62
2022/12/20 04:02:01;;;;;;;9.13;4.68;;;;;;;;;;5068977;28;20072;-62
2022/12/20 04:04:27;;;;;;;9.32;3.75;;;;;;;;;;5066716;28;20707;-63
2022/12/20 04:06:53;;;;;;;5.60;3.83;;;;;;;;;;5051808;28;20128;-63
2022/12/20 04:09:19;;;;;;;6.03;4.28;;;;;;;;;;5052436;28;20393;-62
2022/12/20 04:11:45;;;;;;;6.20;3.88;;;;;;;;;;5051006;28;20045;-63
2022/12/20 04:14:11;;;;;;;7.55;4.00;;;;;;;;;;5065251;28;20454;-63
2022/12/20 04:16:37;;;;;;;8.35;4.38;;;;;;;;;;5056221;28;20131;-62
2022/12/20 04:19:04;;;;;;;7.32;4.05;;;;;;;;;;5089758;28;20059;-62
2022/12/20 04:21:31;;;;;;;7.28;3.72;;;;;;;;;;5074584;28;20098;-63
2022/12/20 04:23:58;;;;;;;9.00;3.97;;;;;;;;;;5092129;28;20036;-62
2022/12/20 04:26:24;;;;;;;8.85;3.90;;;;;;;;;;5073409;28;20040;-63
2022/12/20 04:28:50;;;;;;;9.10;4.28;;;;;;;;;;5091921;28;20398;-63
2022/12/20 04:31:16;;;;;;;5.68;4.10;;;;;;;;;;5091498;28;20044;-62
2022/12/20 04:33:42;;;;;;;7.60;3.38;;;;;;;;;;5056423;28;20044;-63
2022/12/20 04:36:08;;;;;;;7.03;4.20;;;;;;;;;;5086955;28;20439;-62
2022/12/20 04:38:34;;;;;;;6.85;3.67;;;;;;;;;;5072796;28;20127;-62
2022/12/20 04:41:00;;;;;;;9.05;3.90;;;;;;;;;;5073724;28;20047;-62
2022/12/20 04:43:27;;;;;;;7.40;3.08;;;;;;;;;;5053949;28;20526;-62
2022/12/20 04:45:55;;;;;;;6.18;3.38;;;;;;;;;;5071653;28;20051;-62
2022/12/20 04:48:21;;;;;;;6.93;3.70;;;;;;;;;;5088855;28;20048;-62
2022/12/20 04:50:48;;;;;;;5.03;3.10;;;;;;;;;;5053189;28;20136;-62
2022/12/20 04:56:00;;;;;;;10.73;4.78;;;;;;;;;;5091826;28;20078;-62
2022/12/20 04:58:26;;;;;;;7.82;4.60;;;;;;;;;;5089556;28;20126;-62
2022/12/20 05:00:52;;;;;;;7.80;3.95;;;;;;;;;;5092193;28;20560;-63
2022/12/20 05:03:22;;;;;;;5.28;3.60;;;;;;;;;;5069330;28;20542;-62
2022/12/20 05:05:48;;;;;;;5.65;3.67;;;;;;;;;;5044644;28;20045;-62
2022/12/20 05:08:14;;;;;;;7.15;3.75;;;;;;;;;;5087344;28;20109;-62
2022/12/20 05:10:41;;;;;;;8.48;3.78;;;;;;;;;;5057154;28;20048;-63
2022/12/20 05:13:07;;;;;;;8.32;3.78;;;;;;;;;;5078883;28;20045;-62
2022/12/20 05:15:33;;;;;;;5.95;3.53;;;;;;;;;;5070660;28;20084;-62
2022/12/20 05:17:59;;;;;;;6.65;3.42;;;;;;;;;;5087611;28;20670;-63
2022/12/20 05:20:34;;;;;;;4.63;2.60;;;;;;;;;;5057404;28;20048;-62
2022/12/20 05:28:32;;;;;;;8.77;3.50;;;;;;;;;;5078264;28;20110;-62
2022/12/20 05:30:58;;;;;;;9.15;3.45;;;;;;;;;;5083378;28;20047;-62
2022/12/20 05:33:24;;;;;;;5.40;2.90;;;;;;;;;;5091507;28;20048;-62
2022/12/20 05:35:50;;;;;;;12.75;3.25;;;;;;;;;;5090541;28;20488;-62
2022/12/20 05:38:16;;;;;;;12.70;3.33;;;;;;;;;;5083199;28;20051;-62
2022/12/20 05:40:43;;;;;;;5.88;3.20;;;;;;;;;;5071150;28;20087;-64
2022/12/20 05:43:09;;;;;;;5.90;3.15;;;;;;;;;;5091469;28;20052;-62
2022/12/20 05:45:35;;;;;;;5.35;2.80;;;;;;;;;;5091498;28;20040;-62
2022/12/20 05:48:01;;;;;;;6.15;2.90;;;;;;;;;;5090109;28;20058;-63
2022/12/20 05:50:27;;;;;;;5.72;3.17;;;;;;;;;;5091079;28;20044;-62
2022/12/20 05:52:53;;;;;;;5.95;2.90;;;;;;;;;;5090010;28;20044;-62
2022/12/20 05:55:19;;;;;;;8.27;3.40;;;;;;;;;;5094229;28;20488;-62
2022/12/20 05:57:45;;;;;;;7.97;3.10;;;;;;;;;;5093298;28;20041;-61
2022/12/20 06:00:12;;;;;;;5.82;3.00;;;;;;;;;;5094964;28;20056;-61
2022/12/20 06:02:38;;;;;;;6.65;2.90;;;;;;;;;;5072979;28;20405;-61
2022/12/20 06:05:04;;;;;;;5.47;3.20;;;;;;;;;;5087227;28;20123;-62
2022/12/20 06:07:30;;;;;;;5.45;3.10;;;;;;;;;;5092685;28;20051;-61
2022/12/20 06:09:56;;;;;;;8.07;3.70;;;;;;;;;;5091356;28;20048;-61
2022/12/20 06:12:23;;;;;;;5.53;3.30;;;;;;;;;;5094038;28;20059;-61
2022/12/20 06:14:50;;;;;;;7.43;3.60;;;;;;;;;;5060032;28;20044;-61
2022/12/20 06:17:17;;;;;;;6.55;3.70;;;;;;;;;;5093212;28;20123;-63
2022/12/20 06:19:43;;;;;;;7.20;3.83;;;;;;;;;;5093586;28;20051;-62
2022/12/20 06:22:09;;;;;;;7.88;4.22;;;;;;;;;;5092882;28;20050;-62
2022/12/20 06:24:35;;;;;;;7.43;4.22;;;;;;;;;;5093626;28;20408;-62
2022/12/20 06:27:02;;;;;;;7.95;4.47;;;;;;;;;;5094057;28;20036;-62
2022/12/20 06:29:29;;;;;;;8.98;4.30;;;;;;;;;;5093306;28;20044;-61
2022/12/20 06:31:55;;;;;;;9.20;3.75;;;;;;;;;;5074928;28;20083;-62
2022/12/20 06:34:22;;;;;;;9.70;5.05;;;;;;;;;;5093815;28;20052;-62
2022/12/20 06:36:48;;;;;;;7.85;3.83;;;;;;;;;;5075299;28;20086;-62
2022/12/20 06:39:14;;;;;;;8.10;4.50;;;;;;;;;;5073292;28;20039;-62
2022/12/20 06:41:40;;;;;;;9.38;5.07;;;;;;;;;;5082176;28;20049;-63
2022/12/20 06:44:07;;;;;;;7.53;4.90;;;;;;;;;;5072850;28;20048;-62
2022/12/20 06:46:33;;;;;;;14.43;5.72;;;;;;;;;;5073919;28;20049;-62
2022/12/20 06:48:59;;;;;;;8.63;4.97;;;;;;;;;;5091326;28;20838;-62
2022/12/20 06:51:25;;;;;;;9.70;4.20;;;;;;;;;;5092920;28;20069;-62
2022/12/20 06:53:51;;;;;;;8.13;4.50;;;;;;;;;;5075916;28;20044;-62
2022/12/20 06:56:17;;;;;;;8.68;4.50;;;;;;;;;;5092824;28;20048;-62
2022/12/20 06:58:46;;;;;;;13.88;6.20;;;;;;;;;;5087517;28;20366;-63
2022/12/20 07:01:12;;;;;;;10.45;5.15;;;;;;;;;;5099484;22;20512;-62
2022/12/20 07:03:38;;;;;;;12.65;5.38;;;;;;;;;;5093712;28;20097;-62
2022/12/20 07:06:04;;;;;;;9.48;5.50;;;;;;;;;;5074082;28;20028;-63
2022/12/20 07:08:30;;;;;;;8.70;4.65;;;;;;;;;;5093861;28;20036;-62
2022/12/20 07:11:02;;;;;;;7.13;5.18;;;;;;;;;;5074186;28;20067;-63
2022/12/20 07:13:28;;;;;;;10.43;5.70;;;;;;;;;;5088819;28;20032;-62
2022/12/20 07:15:58;;;;;;;9.55;5.10;;;;;;;;;;5098070;22;20530;-62
2022/12/20 07:18:24;;;;;;;8.38;4.32;;;;;;;;;;5109963;22;20059;-62
2022/12/20 07:20:50;;;;;;;8.35;5.63;;;;;;;;;;5073902;28;20523;-62
2022/12/20 07:23:17;;;;;;;10.20;5.65;;;;;;;;;;5075239;28;20087;-62
2022/12/20 07:25:43;;;;;;;10.15;5.68;;;;;;;;;;5075057;28;20047;-62
2022/12/20 07:28:09;;;;;;;10.93;5.90;;;;;;;;;;5073243;28;20420;-62
2022/12/20 07:30:36;;;;;;;10.70;5.45;;;;;;;;;;5093422;28;20527;-62
2022/12/20 07:33:02;;;;;;;8.82;4.60;;;;;;;;;;5058345;28;20552;-63
2022/12/20 07:35:28;;;;;;;6.82;3.83;;;;;;;;;;5074424;28;20052;-63
2022/12/20 07:37:54;;;;;;;8.48;5.15;;;;;;;;;;5090385;28;20492;-62
2022/12/20 07:40:21;;;;;;;7.07;5.18;;;;;;;;;;5075057;28;20123;-63
2022/12/20 07:42:47;;;;;;;8.88;6.20;;;;;;;;;;5073603;28;20446;-62
2022/12/20 07:45:14;;;;;;;14.63;5.68;;;;;;;;;;5093100;28;20054;-63
2022/12/20 07:47:40;;;;;;;11.55;5.22;;;;;;;;;;5091470;28;20638;-63
2022/12/20 07:50:06;;;;;;;14.48;5.22;;;;;;;;;;5074993;28;20131;-62
2022/12/20 07:52:34;;;;;;;8.80;5.22;;;;;;;;;;5092764;28;20048;-62
2022/12/20 07:55:01;;;;;;;7.43;4.68;;;;;;;;;;5080468;28;20420;-62
2022/12/20 07:57:31;;;;;;;10.57;4.97;;;;;;;;;;5071936;28;20106;-62
2022/12/20 07:59:59;;;;;;;8.50;4.72;;;;;;;;;;5074374;28;20051;-62
2022/12/20 08:02:30;;;;;;;7.82;4.63;;;;;;;;;;5092681;28;20071;-62
2022/12/20 08:04:57;;;;;;;7.40;4.40;;;;;;;;;;5073629;28;20059;-62
2022/12/20 08:07:23;;;;;;;8.27;5.32;;;;;;;;;;5078037;28;20083;-62
2022/12/20 08:09:50;;;;;;;9.48;5.00;;;;;;;;;;5072269;28;20596;-62
2022/12/20 08:12:17;;;;;;;6.97;4.55;;;;;;;;;;5073359;28;20488;-62
2022/12/20 08:14:43;;;;;;;8.80;5.00;;;;;;;;;;5092145;28;20123;-63
2022/12/20 08:17:10;;;;;;;11.02;5.53;;;;;;;;;;5072656;28;20487;-62
2022/12/20 08:19:37;;;;;;;11.23;4.90;;;;;;;;;;5092582;28;20052;-63
2022/12/20 08:22:04;;;;;;;8.85;4.13;;;;;;;;;;5074416;28;20076;-62
2022/12/20 08:24:30;;;;;;;7.60;4.35;;;;;;;;;;5089908;28;20051;-63
2022/12/20 08:26:56;;;;;;;6.50;3.95;;;;;;;;;;5055116;28;20040;-62
2022/12/20 08:29:22;;;;;;;7.70;3.78;;;;;;;;;;5078123;28;20409;-63
2022/12/20 08:31:48;;;;;;;6.85;4.00;;;;;;;;;;5072017;28;20076;-62
2022/12/20 08:34:15;;;;;;;6.32;3.80;;;;;;;;;;5074368;28;20044;-62
2022/12/20 08:36:41;;;;;;;8.10;3.33;;;;;;;;;;5072643;28;20063;-63
2022/12/20 08:39:07;;;;;;;7.70;3.67;;;;;;;;;;5072853;28;20043;-63
2022/12/20 08:41:36;;;;;;;5.05;2.95;;;;;;;;;;5087641;28;20047;-63
2022/12/20 08:44:03;;;;;;;6.07;3.38;;;;;;;;;;5085036;28;20113;-63
2022/12/20 08:46:29;;;;;;;5.60;3.03;;;;;;;;;;5086897;28;20040;-62
2022/12/20 08:48:55;;;;;;;9.68;3.50;;;;;;;;;;5091735;28;20489;-62
2022/12/20 08:51:21;;;;;;;6.10;3.08;;;;;;;;;;5092021;28;20040;-62
2022/12/20 08:53:47;;;;;;;5.60;2.70;;;;;;;;;;5071915;28;20044;-63
2022/12/20 08:56:15;;;;;;;6.85;3.10;;;;;;;;;;5056894;28;20050;-62
2022/12/20 08:58:42;;;;;;;6.00;3.30;;;;;;;;;;5084812;28;20040;-63
2022/12/20 09:01:10;;;;;;;7.60;2.72;;;;;;;;;;5072460;28;20060;-62
2022/12/20 09:03:36;;;;;;;6.40;2.90;;;;;;;;;;5085164;28;20052;-63
2022/12/20 09:06:06;;;;;;;9.10;2.88;;;;;;;;;;5072830;28;20117;-62
2022/12/20 09:08:37;;;;;;;5.47;2.75;;;;;;;;;;5068620;28;20110;-62
2022/12/20 09:11:05;;;;;;;5.32;3.05;;;;;;;;;;5070214;28;20059;-62
2022/12/20 09:13:31;;;;;;;7.05;2.92;;;;;;;;;;5091556;28;20126;-62
2022/12/20 09:15:59;;;;;;;6.95;2.70;;;;;;;;;;5071801;28;20044;-62
2022/12/20 09:18:26;;;;;;;5.95;2.65;;;;;;;;;;5091341;28;20095;-63
2022/12/20 09:20:52;;;;;;;5.35;2.58;;;;;;;;;;5073382;28;20048;-62
2022/12/20 09:23:18;;;;;;;5.20;2.72;;;;;;;;;;5088749;28;20488;-63
2022/12/20 09:25:44;;;;;;;6.25;2.60;;;;;;;;;;5044201;28;20048;-62
2022/12/20 09:28:10;;;;;;;5.25;2.60;;;;;;;;;;5093146;28;20044;-62
2022/12/20 09:30:36;;;;;;;7.85;2.72;;;;;;;;;;5060572;28;20040;-62
2022/12/20 09:33:02;;;;;;;6.57;3.05;;;;;;;;;;5068771;28;20068;-62
2022/12/20 09:35:29;;;;;;;4.05;2.22;;;;;;;;;;5078239;28;20044;-62
2022/12/20 09:37:55;;;;;;;8.00;2.42;;;;;;;;;;5074363;28;20044;-63
2022/12/20 09:40:22;;;;;;;6.13;2.83;;;;;;;;;;5086446;28;20473;-62
2022/12/20 09:42:49;;;;;;;6.88;2.70;;;;;;;;;;5091224;28;20488;-63
2022/12/20 09:45:26;;;;;;;8.73;3.20;;;;;;;;;;5081834;28;20128;-62
2022/12/20 09:47:53;;;;;;;5.90;2.70;;;;;;;;;;5076430;28;20127;-62
2022/12/20 09:50:20;;;;;;;8.93;3.28;;;;;;;;;;5064066;28;20493;-63
2022/12/20 09:52:46;;;;;;;5.35;3.08;;;;;;;;;;5073405;28;20392;-63
2022/12/20 09:55:18;;;;;;;4.95;2.58;;;;;;;;;;5064217;28;20050;-63
2022/12/20 09:57:48;;;;;;;5.32;3.00;;;;;;;;;;5052151;28;20062;-62
2022/12/20 10:00:15;;;;;;;8.85;3.20;;;;;;;;;;5074794;28;20052;-62
2022/12/20 10:02:42;;;;;;;8.55;2.80;;;;;;;;;;5090223;28;20534;-62
2022/12/20 10:05:21;;;;;;;5.50;2.97;;;;;;;;;;5063616;28;20059;-62
2022/12/20 10:08:29;;;;;;;6.18;2.83;;;10.60;99.90;;;;;;5075010;28;20040;-62
2022/12/20 10:11:06;;;;;;;8.02;2.88;;;;;;;;;;5057678;28;20060;-62
2022/12/20 10:13:32;;;;;;;4.95;2.80;;;;;;;;;;5074278;28;20054;-63
2022/12/20 10:16:16;;;;;;;5.65;2.80;;;;;;;;;;5060316;28;20097;-62
2022/12/20 10:19:00;;;;;;;9.13;3.17;;;;;;;;;;5076002;28;20059;-62
2022/12/20 10:21:32;;;;;;;4.32;2.40;;;;;;;;;;5076114;28;20062;-63
2022/12/20 10:24:02;;;;;;;4.78;2.75;;;;;;;;;;5073878;28;20047;-62
2022/12/20 10:26:29;;;;;;;6.38;2.53;;;;;;;;;;5074398;28;20066;-62
2022/12/20 10:28:55;;;;;;;4.55;2.63;;;;;;;;;;5086774;28;20043;-63
2022/12/20 10:31:21;;;;;;;3.75;2.33;;;;;;;;;;5094287;28;20051;-63
2022/12/20 10:33:47;;;;;;;6.38;2.85;;;;;;;;;;5063614;22;20067;-62
2022/12/20 10:39:41;;;;;;;7.47;3.10;;;;;;;;;;4945281;22;20053;-63
2022/12/20 10:42:23;;;;;;;11.13;2.65;;;;;;;;;;5048138;28;20132;-63
2022/12/20 10:44:49;;;;;;;6.45;2.97;;;;;;;;;;5034079;28;20046;-63
2022/12/20 10:47:24;;;;;;;9.13;2.78;;;;;;;;;;5051602;28;20033;-63
2022/12/20 10:49:50;;;;;;;7.32;3.17;;;;;;;;;;5031663;28;20044;-63
2022/12/20 10:52:17;;;;;;;4.57;2.70;;;;;;;;;;5050675;28;20116;-63
2022/12/20 10:54:44;;;;;;;4.47;2.70;;;;;;;;;;5018159;28;20084;-63
2022/12/20 10:57:13;;;;;;;8.27;2.95;;;;;;;;;;5018610;28;20049;-63
2022/12/20 10:59:42;;;;;;;7.47;2.88;;;;;;;;;;5035407;28;20044;-66
2022/12/20 11:02:26;;;;;;;7.93;3.40;;;;;;;;;;5051112;28;20052;-63
2022/12/20 11:05:11;;;;;;;3.83;2.42;;;;;;;;;;5004358;28;20041;-63
2022/12/20 11:07:39;;;;;;;5.43;2.63;;;;;;;;;;5035528;28;20482;-63
2022/12/20 11:10:19;;;;;;;5.85;2.28;;;;;;;;;;5018803;28;20049;-63
2022/12/20 11:12:52;;;;;;;4.75;2.50;;;;;;;;;;5016866;28;20106;-63
2022/12/20 11:15:20;;;;;;;5.78;2.85;;;;;;;;;;5034872;28;20132;-64
2022/12/20 11:17:50;;;;;;;4.70;3.10;;;;;;;;;;5033884;28;20036;-63
2022/12/20 11:20:57;;;;;;;5.63;2.47;;;10.90;99.90;;;;;;5028994;28;20114;-63
2022/12/20 11:23:41;;;;;;;4.78;2.72;;;;;;;;;;5035375;28;20059;-63
2022/12/20 11:26:16;;;;;;;7.03;2.88;;;;;;;;;;5052702;28;20486;-63
2022/12/20 11:29:21;;;;;;;6.72;2.85;;;;;;;;;;5033900;28;20102;-63
2022/12/20 11:31:53;;;;;;;5.68;2.75;;;;;;;;;;4970328;28;20507;-62
2022/12/20 11:34:19;;;;;;;5.80;2.90;;;;;;;;;;4971577;28;20115;-62
2022/12/20 11:37:16;;;;;;;6.03;2.42;;;10.70;99.90;;;;;;4971599;28;20090;-63
2022/12/20 11:40:17;;;;;;;9.02;3.33;;;10.40;99.90;;;;;;4938755;28;20592;-62
2022/12/20 11:43:04;;;;;;;6.78;3.20;;;;;;;;;;4933281;29;20058;-62
2022/12/20 11:45:30;;;;;;;6.93;3.45;;;;;;;;;;4936217;29;20059;-62
2022/12/20 11:47:56;;;;;;;4.68;3.55;;;;;;;;;;4951282;29;20051;-63
2022/12/20 11:50:36;;;;;;;6.30;3.97;;;;;;;;;;4935767;28;20055;-62
2022/12/20 11:53:08;;;;;;;6.23;3.30;;;;;;;;;;4951562;28;20047;-62
2022/12/20 11:55:35;;;;;;;7.68;3.85;;;;;;;;;;4929178;29;20091;-62
2022/12/20 11:58:02;;;;;;;7.10;3.72;;;;;;;;;;4943403;29;20527;-62
2022/12/20 12:00:29;;;;;;;7.78;3.97;;;;;;;;;;4952082;29;20055;-62
2022/12/20 12:03:04;;;;;;;6.97;4.05;;;;;;;;;;4957691;28;20440;-62
2022/12/20 12:05:44;;;;;;;7.38;4.53;;;;;;;;;;4988029;28;20104;-62
2022/12/20 12:08:21;;;;;;;8.15;4.07;;;;;;;;;;4972546;28;20045;-62
2022/12/20 12:10:56;;;;;;;8.85;4.15;;;;;;;;;;4961241;28;20058;-63
2022/12/20 12:13:32;;;;;;;10.07;5.10;;;;;;;;;;4989212;28;20054;-63
2022/12/20 12:16:03;;;;;;;7.28;4.50;;;;;;;;;;4982888;28;20497;-63
2022/12/20 12:18:30;;;;;;;7.00;5.35;;;;;;;;;;5033018;28;20048;-62
2022/12/20 12:20:56;;;;;;;8.45;4.38;;;;;;;;;;5033356;28;20060;-62
2022/12/20 12:23:25;;;;;;;6.80;4.78;;;;;;;;;;5016903;28;20132;-62
2022/12/20 12:25:51;;;;;;;10.15;5.90;;;;;;;;;;5033292;28;20041;-63
2022/12/20 12:28:19;;;;;;;9.80;5.43;;;;;;;;;;5033784;28;20059;-62
2022/12/20 12:31:05;;;;;;;7.53;5.22;;;;;;;;;;5051521;28;20048;-62
2022/12/20 12:33:35;;;;;;;9.98;5.22;;;;;;;;;;5050904;28;20045;-62
2022/12/20 12:36:16;;;;;;;9.80;5.10;;;;;;;;;;5050496;28;20077;-62
2022/12/20 12:38:55;;;;;;;7.97;5.35;;;;;;;;;;5051148;28;20432;-63
2022/12/20 12:41:33;;;;;;;7.50;5.57;;;;;;;;;;5045917;28;20497;-62
2022/12/20 12:44:22;;;;;;;9.27;6.57;;;;;;;;;;5051688;28;20055;-62
2022/12/20 12:46:53;;;;;;;14.13;6.00;;;;;;;;;;5033539;28;20044;-62
2022/12/20 12:49:20;;;;;;;9.07;5.10;;;;;;;;;;5033957;28;20055;-62
2022/12/20 12:51:51;;;;;;;11.57;5.22;;;;;;;;;;5033949;28;20500;-62
2022/12/20 12:54:21;;;;;;;11.30;5.55;;;;;;;;;;5036290;28;20457;-62
2022/12/20 12:56:48;;;;;;;8.05;5.70;;;;;;;;;;5033590;28;20056;-62
2022/12/20 12:59:32;;;;;;;11.20;6.28;;;;;;;;;;5051696;28;20402;-62
2022/12/20 13:02:04;;;;;;;12.18;5.80;;;;;;;;;;5051149;28;20087;-62
2022/12/20 13:04:57;;;;;;;8.70;5.00;;;10.30;99.90;;;;;;5055451;28;20080;-62
2022/12/20 13:07:26;;;;;;;8.88;5.78;;;;;;;;;;5055746;28;20045;-62
2022/12/20 13:09:52;;;;;;;7.68;6.00;;;;;;;;;;5046210;28;20412;-62
2022/12/20 13:12:37;;;;;;;10.68;6.13;;;;;;;;;;5037855;28;20045;-62
2022/12/20 13:15:03;;;;;;;8.30;5.80;;;;;;;;;;5037619;28;20060;-62
2022/12/20 13:17:29;;;;;;;8.77;6.05;;;;;;;;;;5020745;28;20107;-62
2022/12/20 13:19:56;;;;;;;10.70;5.88;;;;;;;;;;5055638;28;20052;-62
2022/12/20 13:22:23;;;;;;;10.73;6.43;;;;;;;;;;5055532;28;20060;-62
2022/12/20 13:25:01;;;;;;;8.43;5.68;;;;;;;;;;5037070;28;20045;-62
2022/12/20 13:27:37;;;;;;;9.32;6.55;;;;;;;;;;5054476;28;20084;-62
2022/12/20 13:30:09;;;;;;;8.07;6.30;;;;;;;;;;5036952;28;20045;-62
2022/12/20 13:32:47;;;;;;;9.07;5.68;;;;;;;;;;5037647;28;20459;-62
2022/12/20 13:35:26;;;;;;;8.82;6.38;;;;;;;;;;5037288;28;20052;-62
2022/12/20 13:38:03;;;;;;;13.30;7.60;;;;;;;;;;5051004;28;20053;-62
2022/12/20 13:40:35;;;;;;;11.20;7.38;;;;;;;;;;5051970;28;20047;-63
2022/12/20 13:43:08;;;;;;;8.18;6.63;;;;;;;;;;5037230;28;20103;-63
2022/12/20 13:45:35;;;;;;;10.52;7.85;;;;;;;;;;5028585;28;20120;-62
2022/12/20 13:48:03;;;;;;;10.13;7.28;;;;;;;;;;5054676;28;20052;-63
2022/12/20 13:50:35;;;;;;;11.43;7.80;;;;;;;;;;5053520;28;20041;-63
2022/12/20 13:53:03;;;;;;;9.70;7.45;;;;;;;;;;5029798;28;20060;-62
2022/12/20 13:55:37;;;;;;;11.63;8.05;;;;;;;;;;5052711;28;20541;-62
2022/12/20 13:58:04;;;;;;;10.98;8.15;;;;;;;;;;5053955;28;20049;-62
2022/12/20 14:00:30;;;;;;;11.68;9.52;;;;;;;;;;5053300;28;20045;-62
2022/12/20 14:02:56;;;;;;;11.70;8.48;;;;;;;;;;5036145;28;20049;-62
2022/12/20 14:05:27;;;;;;;13.23;8.43;;;;;;;;;;5053679;28;20536;-62
2022/12/20 14:08:01;;;;;;;12.50;9.23;;;;;;;;;;5035558;28;20544;-62
2022/12/20 14:13:32;;;;;;;14.27;9.85;;;;;;;;;;5053149;28;20847;-62
2022/12/20 14:16:06;;;;;;;13.60;9.90;;;;;;;;;;5053182;28;20049;-62
2022/12/20 14:18:32;;;;;;;9.57;8.18;;;;;;;;;;5036849;28;20095;-63
2022/12/20 14:21:00;;;;;;;12.13;9.77;;;;;;;;;;5052695;28;20041;-63
2022/12/20 14:23:47;;;;;;;14.45;8.98;;;;;;;;;;5053643;28;20552;-63
2022/12/20 14:26:17;;;;;;;13.35;9.23;;;;;;;;;;5036574;28;20053;-62
2022/12/20 14:28:47;;;;;;;17.73;11.60;;;;;;;;;;5053473;28;20493;-63
2022/12/20 14:31:27;;;;;;;13.68;9.00;;;;;;;;;;5053023;28;20052;-62
2022/12/20 14:34:03;;;;;;;12.73;9.45;;;;;;;;;;5033994;28;20060;-62
2022/12/20 14:36:32;;;;;;;17.27;11.02;;;;;;;;;;5052575;28;20048;-63
2022/12/20 14:38:59;;;;;;;15.93;11.70;;;;;;;;;;5019408;28;20053;-63
2022/12/20 14:41:27;;;;;;;17.98;12.15;;;;;;;;;;5052423;28;20124;-63
2022/12/20 14:43:59;;;;;;;16.42;12.02;;;;;;;;;;5035724;28;20064;-62
2022/12/20 14:46:25;;;;;;;16.75;12.80;;;;;;;;;;5053853;28;20052;-63
2022/12/20 14:49:06;;;;;;;19.95;14.10;;;;;;;;;;5017724;28;20516;-63
2022/12/20 14:51:34;;;;;;;22.40;13.45;;;;;;;;;;5043831;28;20505;-62
2022/12/20 14:54:00;;;;;;;22.92;13.30;;;;;;;;;;5018704;28;20057;-63
2022/12/20 14:56:26;;;;;;;18.35;14.88;;;;;;;;;;5035917;28;20449;-62
2022/12/20 14:59:10;;;;;;;20.58;13.25;;;;;;;;;;5034232;28;20037;-63
2022/12/20 15:01:37;;;;;;;21.38;13.85;;;;;;;;;;5018839;28;20049;-63
2022/12/20 15:04:12;;;;;;;21.23;15.02;;;;;;;;;;5034247;28;20444;-62
2022/12/20 15:06:41;;;;;;;18.58;13.95;;;;;;;;;;5019029;28;20048;-64
2022/12/20 15:09:07;;;;;;;20.23;14.57;;;;;;;;;;5051223;28;20088;-62
2022/12/20 15:11:35;;;;;;;24.02;15.73;;;;;;;;;;5017526;28;20057;-62